Catlettsburg, Kentucky
Current Conditions -  °F | °C
As of 10:51 AM on Thursday 29 Jan 2015 (Local Time) from KHTS Reporting Station
Light Rain Light Rain  
Wind Chill: 28°   Ceiling: 6000
Heat Index: 36°   Visibility: 10mi
Dew Point: 29°   Wind: 10mph
Humidity: 76%   Direction: 200°SSW
Pressure: 29.95"   Gusts: NA
Location:  38.4°N, 82.6°W
Report Text: KHTS 291551Z 20009KT 10SM -RA FEW049 OVC060 02/M02 A2995 RMK AO2 UPB00E01 SLP149 P0002 T00221017
Loading
Personal Weather Stations






























Interactive Weather Map New forecast layout! Learn more

10-Day Weather Forecast

Advertisements
Track Severe Weather on mobile